<?xml version="1.0" encoding="UTF-8" standalone="no" ?>
<gpx xmlns="http://www.topografix.com/GPX/1/1" xmlns:xsi="http://www.w3.org/2001/XMLSchema-instance" xsi:schemaLocation="http://www.topografix.com/GPX/1/1 http://www.topografix.com/GPX/1/1/gpx.xsd" version="1.1" creator="VisuGPX - https://www.visugpx.com">
  <metadata>
    <name>64 - VTT - Voie verte depuis Besingrand</name>
    <desc><![CDATA[Sortie faite avec Vivie]]></desc>
  </metadata>
  <trk>
    <name><![CDATA[ACTIVE LOG 001]]></name>
    <trkseg>
      <trkpt lat="43.37198" lon="-0.56806">
        <ele>107.805054</ele>
        <time>2013-08-11T07:20:54Z</time>
      </trkpt>
      <trkpt lat="43.37198" lon="-0.56806">
        <ele>107.805054</ele>
        <time>2013-08-11T07:20:55Z</time>
      </trkpt>
      <trkpt lat="43.37198" lon="-0.56806">
        <ele>108.766235</ele>
        <time>2013-08-11T07:20:57Z</time>
      </trkpt>
      <trkpt lat="43.37197" lon="-0.56807">
        <ele>109.246948</ele>
        <time>2013-08-11T07:21:16Z</time>
      </trkpt>
      <trkpt lat="43.37199" lon="-0.5681">
        <ele>110.208252</ele>
        <time>2013-08-11T07:21:33Z</time>
      </trkpt>
      <trkpt lat="43.37222" lon="-0.56798">
        <ele>110.208252</ele>
        <time>2013-08-11T07:21:47Z</time>
      </trkpt>
      <trkpt lat="43.37232" lon="-0.56766">
        <ele>109.727661</ele>
        <time>2013-08-11T07:21:57Z</time>
      </trkpt>
      <trkpt lat="43.37223" lon="-0.56749">
        <ele>110.208252</ele>
        <time>2013-08-11T07:22:01Z</time>
      </trkpt>
      <trkpt lat="43.37169" lon="-0.56683">
        <ele>109.727661</ele>
        <time>2013-08-11T07:22:21Z</time>
      </trkpt>
      <trkpt lat="43.37112" lon="-0.5662">
        <ele>110.208252</ele>
        <time>2013-08-11T07:22:42Z</time>
      </trkpt>
      <trkpt lat="43.37068" lon="-0.5655">
        <ele>111.650269</ele>
        <time>2013-08-11T07:23:01Z</time>
      </trkpt>
      <trkpt lat="43.37068" lon="-0.56467">
        <ele>111.169556</ele>
        <time>2013-08-11T07:23:17Z</time>
      </trkpt>
      <trkpt lat="43.37076" lon="-0.56362">
        <ele>111.650269</ele>
        <time>2013-08-11T07:23:37Z</time>
      </trkpt>
      <trkpt lat="43.37074" lon="-0.56249">
        <ele>111.650269</ele>
        <time>2013-08-11T07:23:57Z</time>
      </trkpt>
      <trkpt lat="43.37053" lon="-0.56153">
        <ele>112.611572</ele>
        <time>2013-08-11T07:24:15Z</time>
      </trkpt>
      <trkpt lat="43.36997" lon="-0.56061">
        <ele>112.611572</ele>
        <time>2013-08-11T07:24:35Z</time>
      </trkpt>
      <trkpt lat="43.3695" lon="-0.55982">
        <ele>113.572998</ele>
        <time>2013-08-11T07:24:53Z</time>
      </trkpt>
      <trkpt lat="43.36904" lon="-0.55862">
        <ele>113.572998</ele>
        <time>2013-08-11T07:25:16Z</time>
      </trkpt>
      <trkpt lat="43.36887" lon="-0.55827">
        <ele>113.572998</ele>
        <time>2013-08-11T07:25:23Z</time>
      </trkpt>
      <trkpt lat="43.36861" lon="-0.55817">
        <ele>114.53418</ele>
        <time>2013-08-11T07:25:30Z</time>
      </trkpt>
      <trkpt lat="43.36853" lon="-0.55821">
        <ele>114.053589</ele>
        <time>2013-08-11T07:25:32Z</time>
      </trkpt>
      <trkpt lat="43.36832" lon="-0.55817">
        <ele>113.572998</ele>
        <time>2013-08-11T07:25:37Z</time>
      </trkpt>
      <trkpt lat="43.36742" lon="-0.55743">
        <ele>115.495605</ele>
        <time>2013-08-11T07:26:01Z</time>
      </trkpt>
      <trkpt lat="43.36681" lon="-0.5569">
        <ele>115.495605</ele>
        <time>2013-08-11T07:26:19Z</time>
      </trkpt>
      <trkpt lat="43.36641" lon="-0.55624">
        <ele>116.9375</ele>
        <time>2013-08-11T07:26:35Z</time>
      </trkpt>
      <trkpt lat="43.36605" lon="-0.55553">
        <ele>117.418213</ele>
        <time>2013-08-11T07:26:51Z</time>
      </trkpt>
      <trkpt lat="43.36578" lon="-0.55496">
        <ele>116.9375</ele>
        <time>2013-08-11T07:27:04Z</time>
      </trkpt>
      <trkpt lat="43.36544" lon="-0.55427">
        <ele>117.898804</ele>
        <time>2013-08-11T07:27:20Z</time>
      </trkpt>
      <trkpt lat="43.3653" lon="-0.55398">
        <ele>117.418213</ele>
        <time>2013-08-11T07:27:26Z</time>
      </trkpt>
      <trkpt lat="43.36522" lon="-0.55384">
        <ele>117.898804</ele>
        <time>2013-08-11T07:27:29Z</time>
      </trkpt>
      <trkpt lat="43.36483" lon="-0.55317">
        <ele>117.418213</ele>
        <time>2013-08-11T07:27:45Z</time>
      </trkpt>
      <trkpt lat="43.36413" lon="-0.55245">
        <ele>118.860107</ele>
        <time>2013-08-11T07:28:07Z</time>
      </trkpt>
      <trkpt lat="43.36355" lon="-0.55171">
        <ele>118.379395</ele>
        <time>2013-08-11T07:28:26Z</time>
      </trkpt>
      <trkpt lat="43.36304" lon="-0.55114">
        <ele>118.860107</ele>
        <time>2013-08-11T07:28:42Z</time>
      </trkpt>
      <trkpt lat="43.3627" lon="-0.55051">
        <ele>118.860107</ele>
        <time>2013-08-11T07:28:57Z</time>
      </trkpt>
      <trkpt lat="43.36258" lon="-0.5499">
        <ele>117.898804</ele>
        <time>2013-08-11T07:29:10Z</time>
      </trkpt>
      <trkpt lat="43.36261" lon="-0.54913">
        <ele>117.898804</ele>
        <time>2013-08-11T07:29:24Z</time>
      </trkpt>
      <trkpt lat="43.36247" lon="-0.54844">
        <ele>118.860107</ele>
        <time>2013-08-11T07:29:39Z</time>
      </trkpt>
      <trkpt lat="43.36224" lon="-0.54785">
        <ele>119.34082</ele>
        <time>2013-08-11T07:29:55Z</time>
      </trkpt>
      <trkpt lat="43.3621" lon="-0.54713">
        <ele>117.418213</ele>
        <time>2013-08-11T07:30:10Z</time>
      </trkpt>
      <trkpt lat="43.36207" lon="-0.54673">
        <ele>117.898804</ele>
        <time>2013-08-11T07:30:19Z</time>
      </trkpt>
      <trkpt lat="43.36209" lon="-0.54629">
        <ele>119.821411</ele>
        <time>2013-08-11T07:30:29Z</time>
      </trkpt>
      <trkpt lat="43.36203" lon="-0.54576">
        <ele>120.302124</ele>
        <time>2013-08-11T07:30:42Z</time>
      </trkpt>
      <trkpt lat="43.36192" lon="-0.54512">
        <ele>119.821411</ele>
        <time>2013-08-11T07:30:55Z</time>
      </trkpt>
      <trkpt lat="43.36162" lon="-0.54478">
        <ele>119.821411</ele>
        <time>2013-08-11T07:31:07Z</time>
      </trkpt>
      <trkpt lat="43.36117" lon="-0.54405">
        <ele>120.302124</ele>
        <time>2013-08-11T07:31:26Z</time>
      </trkpt>
      <trkpt lat="43.36067" lon="-0.54323">
        <ele>120.302124</ele>
        <time>2013-08-11T07:31:45Z</time>
      </trkpt>
      <trkpt lat="43.36026" lon="-0.54268">
        <ele>120.782837</ele>
        <time>2013-08-11T07:32:01Z</time>
      </trkpt>
      <trkpt lat="43.35991" lon="-0.54205">
        <ele>119.821411</ele>
        <time>2013-08-11T07:32:16Z</time>
      </trkpt>
      <trkpt lat="43.35925" lon="-0.54135">
        <ele>120.302124</ele>
        <time>2013-08-11T07:32:35Z</time>
      </trkpt>
      <trkpt lat="43.359" lon="-0.54108">
        <ele>121.26355</ele>
        <time>2013-08-11T07:32:43Z</time>
      </trkpt>
      <trkpt lat="43.35877" lon="-0.54018">
        <ele>121.26355</ele>
        <time>2013-08-11T07:32:59Z</time>
      </trkpt>
      <trkpt lat="43.35875" lon="-0.54006">
        <ele>121.26355</ele>
        <time>2013-08-11T07:33:01Z</time>
      </trkpt>
      <trkpt lat="43.35848" lon="-0.53929">
        <ele>121.744141</ele>
        <time>2013-08-11T07:33:16Z</time>
      </trkpt>
      <trkpt lat="43.35846" lon="-0.53922">
        <ele>121.26355</ele>
        <time>2013-08-11T07:33:17Z</time>
      </trkpt>
      <trkpt lat="43.35838" lon="-0.53909">
        <ele>120.782837</ele>
        <time>2013-08-11T07:33:20Z</time>
      </trkpt>
      <trkpt lat="43.35829" lon="-0.53897">
        <ele>121.26355</ele>
        <time>2013-08-11T07:33:23Z</time>
      </trkpt>
      <trkpt lat="43.35805" lon="-0.53867">
        <ele>121.744141</ele>
        <time>2013-08-11T07:33:30Z</time>
      </trkpt>
      <trkpt lat="43.35793" lon="-0.53847">
        <ele>121.744141</ele>
        <time>2013-08-11T07:33:34Z</time>
      </trkpt>
      <trkpt lat="43.35745" lon="-0.53767">
        <ele>121.744141</ele>
        <time>2013-08-11T07:33:51Z</time>
      </trkpt>
      <trkpt lat="43.35717" lon="-0.53717">
        <ele>121.744141</ele>
        <time>2013-08-11T07:34:01Z</time>
      </trkpt>
      <trkpt lat="43.35711" lon="-0.53688">
        <ele>121.744141</ele>
        <time>2013-08-11T07:34:06Z</time>
      </trkpt>
      <trkpt lat="43.357" lon="-0.5355">
        <ele>121.26355</ele>
        <time>2013-08-11T07:34:29Z</time>
      </trkpt>
      <trkpt lat="43.35691" lon="-0.53498">
        <ele>122.224731</ele>
        <time>2013-08-11T07:34:38Z</time>
      </trkpt>
      <trkpt lat="43.35631" lon="-0.53379">
        <ele>122.224731</ele>
        <time>2013-08-11T07:35:01Z</time>
      </trkpt>
      <trkpt lat="43.35582" lon="-0.53289">
        <ele>122.705444</ele>
        <time>2013-08-11T07:35:19Z</time>
      </trkpt>
      <trkpt lat="43.35553" lon="-0.53177">
        <ele>123.186157</ele>
        <time>2013-08-11T07:35:38Z</time>
      </trkpt>
      <trkpt lat="43.35521" lon="-0.53039">
        <ele>123.186157</ele>
        <time>2013-08-11T07:36:01Z</time>
      </trkpt>
      <trkpt lat="43.35505" lon="-0.52961">
        <ele>123.666748</ele>
        <time>2013-08-11T07:36:15Z</time>
      </trkpt>
      <trkpt lat="43.35507" lon="-0.5284">
        <ele>123.666748</ele>
        <time>2013-08-11T07:36:35Z</time>
      </trkpt>
      <trkpt lat="43.35502" lon="-0.52743">
        <ele>124.147339</ele>
        <time>2013-08-11T07:36:51Z</time>
      </trkpt>
      <trkpt lat="43.3548" lon="-0.52633">
        <ele>124.628052</ele>
        <time>2013-08-11T07:37:10Z</time>
      </trkpt>
      <trkpt lat="43.35468" lon="-0.52513">
        <ele>124.628052</ele>
        <time>2013-08-11T07:37:29Z</time>
      </trkpt>
      <trkpt lat="43.35472" lon="-0.52369">
        <ele>124.628052</ele>
        <time>2013-08-11T07:37:52Z</time>
      </trkpt>
      <trkpt lat="43.35503" lon="-0.5225">
        <ele>125.108765</ele>
        <time>2013-08-11T07:38:12Z</time>
      </trkpt>
      <trkpt lat="43.35522" lon="-0.52211">
        <ele>125.108765</ele>
        <time>2013-08-11T07:38:19Z</time>
      </trkpt>
      <trkpt lat="43.3554" lon="-0.5219">
        <ele>125.589355</ele>
        <time>2013-08-11T07:38:24Z</time>
      </trkpt>
      <trkpt lat="43.35571" lon="-0.5218">
        <ele>125.108765</ele>
        <time>2013-08-11T07:38:31Z</time>
      </trkpt>
      <trkpt lat="43.35605" lon="-0.52195">
        <ele>124.147339</ele>
        <time>2013-08-11T07:38:39Z</time>
      </trkpt>
      <trkpt lat="43.3564" lon="-0.52172">
        <ele>124.628052</ele>
        <time>2013-08-11T07:38:49Z</time>
      </trkpt>
      <trkpt lat="43.35643" lon="-0.52154">
        <ele>125.108765</ele>
        <time>2013-08-11T07:38:52Z</time>
      </trkpt>
      <trkpt lat="43.35646" lon="-0.52136">
        <ele>125.108765</ele>
        <time>2013-08-11T07:38:55Z</time>
      </trkpt>
      <trkpt lat="43.35647" lon="-0.52118">
        <ele>124.628052</ele>
        <time>2013-08-11T07:38:58Z</time>
      </trkpt>
      <trkpt lat="43.35645" lon="-0.52093">
        <ele>125.589355</ele>
        <time>2013-08-11T07:39:02Z</time>
      </trkpt>
      <trkpt lat="43.3564" lon="-0.52076">
        <ele>124.628052</ele>
        <time>2013-08-11T07:39:05Z</time>
      </trkpt>
      <trkpt lat="43.35593" lon="-0.51971">
        <ele>125.108765</ele>
        <time>2013-08-11T07:39:24Z</time>
      </trkpt>
      <trkpt lat="43.35548" lon="-0.51903">
        <ele>125.589355</ele>
        <time>2013-08-11T07:39:40Z</time>
      </trkpt>
      <trkpt lat="43.35541" lon="-0.51898">
        <ele>125.108765</ele>
        <time>2013-08-11T07:39:42Z</time>
      </trkpt>
      <trkpt lat="43.35528" lon="-0.51883">
        <ele>125.108765</ele>
        <time>2013-08-11T07:39:46Z</time>
      </trkpt>
      <trkpt lat="43.35476" lon="-0.51818">
        <ele>126.069946</ele>
        <time>2013-08-11T07:40:02Z</time>
      </trkpt>
      <trkpt lat="43.35455" lon="-0.51781">
        <ele>127.031372</ele>
        <time>2013-08-11T07:40:10Z</time>
      </trkpt>
      <trkpt lat="43.35445" lon="-0.51771">
        <ele>126.069946</ele>
        <time>2013-08-11T07:40:13Z</time>
      </trkpt>
      <trkpt lat="43.35435" lon="-0.51742">
        <ele>126.550659</ele>
        <time>2013-08-11T07:40:18Z</time>
      </trkpt>
      <trkpt lat="43.35428" lon="-0.51685">
        <ele>129.915283</ele>
        <time>2013-08-11T07:40:28Z</time>
      </trkpt>
      <trkpt lat="43.35399" lon="-0.51654">
        <ele>128.954102</ele>
        <time>2013-08-11T07:40:37Z</time>
      </trkpt>
      <trkpt lat="43.35337" lon="-0.51612">
        <ele>126.550659</ele>
        <time>2013-08-11T07:40:51Z</time>
      </trkpt>
      <trkpt lat="43.35323" lon="-0.51604">
        <ele>127.031372</ele>
        <time>2013-08-11T07:40:54Z</time>
      </trkpt>
      <trkpt lat="43.35267" lon="-0.51539">
        <ele>127.511963</ele>
        <time>2013-08-11T07:41:08Z</time>
      </trkpt>
      <trkpt lat="43.35235" lon="-0.51496">
        <ele>127.031372</ele>
        <time>2013-08-11T07:41:17Z</time>
      </trkpt>
      <trkpt lat="43.35207" lon="-0.51501">
        <ele>126.550659</ele>
        <time>2013-08-11T07:41:24Z</time>
      </trkpt>
      <trkpt lat="43.35187" lon="-0.5151">
        <ele>127.992554</ele>
        <time>2013-08-11T07:41:29Z</time>
      </trkpt>
      <trkpt lat="43.35179" lon="-0.51511">
        <ele>128.473389</ele>
        <time>2013-08-11T07:41:31Z</time>
      </trkpt>
      <trkpt lat="43.35125" lon="-0.51517">
        <ele>128.473389</ele>
        <time>2013-08-11T07:41:44Z</time>
      </trkpt>
      <trkpt lat="43.3511" lon="-0.51507">
        <ele>128.473389</ele>
        <time>2013-08-11T07:41:48Z</time>
      </trkpt>
      <trkpt lat="43.35078" lon="-0.51461">
        <ele>128.954102</ele>
        <time>2013-08-11T07:41:59Z</time>
      </trkpt>
      <trkpt lat="43.35073" lon="-0.51451">
        <ele>129.434692</ele>
        <time>2013-08-11T07:42:01Z</time>
      </trkpt>
      <trkpt lat="43.35063" lon="-0.51409">
        <ele>129.434692</ele>
        <time>2013-08-11T07:42:08Z</time>
      </trkpt>
      <trkpt lat="43.35033" lon="-0.51401">
        <ele>128.954102</ele>
        <time>2013-08-11T07:42:16Z</time>
      </trkpt>
      <trkpt lat="43.3502" lon="-0.51413">
        <ele>128.473389</ele>
        <time>2013-08-11T07:42:19Z</time>
      </trkpt>
      <trkpt lat="43.34988" lon="-0.51415">
        <ele>129.434692</ele>
        <time>2013-08-11T07:42:26Z</time>
      </trkpt>
      <trkpt lat="43.34915" lon="-0.51365">
        <ele>129.434692</ele>
        <time>2013-08-11T07:42:43Z</time>
      </trkpt>
      <trkpt lat="43.34836" lon="-0.51302">
        <ele>129.915283</ele>
        <time>2013-08-11T07:43:01Z</time>
      </trkpt>
      <trkpt lat="43.34826" lon="-0.51297">
        <ele>129.915283</ele>
        <time>2013-08-11T07:43:03Z</time>
      </trkpt>
      <trkpt lat="43.34747" lon="-0.5127">
        <ele>130.395996</ele>
        <time>2013-08-11T07:43:20Z</time>
      </trkpt>
      <trkpt lat="43.34738" lon="-0.51265">
        <ele>130.876709</ele>
        <time>2013-08-11T07:43:22Z</time>
      </trkpt>
      <trkpt lat="43.34697" lon="-0.51254">
        <ele>129.915283</ele>
        <time>2013-08-11T07:43:32Z</time>
      </trkpt>
      <trkpt lat="43.34696" lon="-0.51226">
        <ele>129.915283</ele>
        <time>2013-08-11T07:43:38Z</time>
      </trkpt>
      <trkpt lat="43.34703" lon="-0.51204">
        <ele>129.915283</ele>
        <time>2013-08-11T07:43:42Z</time>
      </trkpt>
      <trkpt lat="43.34706" lon="-0.51192">
        <ele>130.395996</ele>
        <time>2013-08-11T07:43:44Z</time>
      </trkpt>
      <trkpt lat="43.34731" lon="-0.51123">
        <ele>130.876709</ele>
        <time>2013-08-11T07:43:56Z</time>
      </trkpt>
      <trkpt lat="43.34735" lon="-0.51099">
        <ele>130.395996</ele>
        <time>2013-08-11T07:44:00Z</time>
      </trkpt>
      <trkpt lat="43.34747" lon="-0.51051">
        <ele>130.876709</ele>
        <time>2013-08-11T07:44:08Z</time>
      </trkpt>
      <trkpt lat="43.34751" lon="-0.51033">
        <ele>130.876709</ele>
        <time>2013-08-11T07:44:11Z</time>
      </trkpt>
      <trkpt lat="43.34747" lon="-0.51011">
        <ele>130.876709</ele>
        <time>2013-08-11T07:44:15Z</time>
      </trkpt>
      <trkpt lat="43.3473" lon="-0.50985">
        <ele>130.876709</ele>
        <time>2013-08-11T07:44:20Z</time>
      </trkpt>
      <trkpt lat="43.34722" lon="-0.50969">
        <ele>130.876709</ele>
        <time>2013-08-11T07:44:23Z</time>
      </trkpt>
      <trkpt lat="43.34691" lon="-0.50909">
        <ele>130.876709</ele>
        <time>2013-08-11T07:44:34Z</time>
      </trkpt>
      <trkpt lat="43.34681" lon="-0.50887">
        <ele>130.395996</ele>
        <time>2013-08-11T07:44:38Z</time>
      </trkpt>
      <trkpt lat="43.34635" lon="-0.50824">
        <ele>130.876709</ele>
        <time>2013-08-11T07:44:52Z</time>
      </trkpt>
      <trkpt lat="43.34605" lon="-0.50763">
        <ele>130.876709</ele>
        <time>2013-08-11T07:45:03Z</time>
      </trkpt>
      <trkpt lat="43.34603" lon="-0.50757">
        <ele>131.837891</ele>
        <time>2013-08-11T07:45:04Z</time>
      </trkpt>
      <trkpt lat="43.34592" lon="-0.50737">
        <ele>131.837891</ele>
        <time>2013-08-11T07:45:08Z</time>
      </trkpt>
      <trkpt lat="43.34542" lon="-0.50677">
        <ele>131.837891</ele>
        <time>2013-08-11T07:45:21Z</time>
      </trkpt>
      <trkpt lat="43.34484" lon="-0.50596">
        <ele>133.279907</ele>
        <time>2013-08-11T07:45:38Z</time>
      </trkpt>
      <trkpt lat="43.34441" lon="-0.50559">
        <ele>132.318604</ele>
        <time>2013-08-11T07:45:48Z</time>
      </trkpt>
      <trkpt lat="43.34427" lon="-0.50541">
        <ele>132.318604</ele>
        <time>2013-08-11T07:45:52Z</time>
      </trkpt>
      <trkpt lat="43.34421" lon="-0.5053">
        <ele>132.318604</ele>
        <time>2013-08-11T07:45:54Z</time>
      </trkpt>
      <trkpt lat="43.34402" lon="-0.5051">
        <ele>132.318604</ele>
        <time>2013-08-11T07:45:59Z</time>
      </trkpt>
      <trkpt lat="43.34379" lon="-0.50496">
        <ele>132.799316</ele>
        <time>2013-08-11T07:46:04Z</time>
      </trkpt>
      <trkpt lat="43.34345" lon="-0.50486">
        <ele>131.837891</ele>
        <time>2013-08-11T07:46:12Z</time>
      </trkpt>
      <trkpt lat="43.34326" lon="-0.50469">
        <ele>132.799316</ele>
        <time>2013-08-11T07:46:17Z</time>
      </trkpt>
      <trkpt lat="43.34291" lon="-0.50425">
        <ele>131.837891</ele>
        <time>2013-08-11T07:46:28Z</time>
      </trkpt>
      <trkpt lat="43.34241" lon="-0.50371">
        <ele>132.318604</ele>
        <time>2013-08-11T07:46:41Z</time>
      </trkpt>
      <trkpt lat="43.34221" lon="-0.50358">
        <ele>133.760498</ele>
        <time>2013-08-11T07:46:46Z</time>
      </trkpt>
      <trkpt lat="43.34213" lon="-0.50351">
        <ele>134.721924</ele>
        <time>2013-08-11T07:46:48Z</time>
      </trkpt>
      <trkpt lat="43.34168" lon="-0.50319">
        <ele>133.760498</ele>
        <time>2013-08-11T07:46:58Z</time>
      </trkpt>
      <trkpt lat="43.34151" lon="-0.50306">
        <ele>134.241211</ele>
        <time>2013-08-11T07:47:02Z</time>
      </trkpt>
      <trkpt lat="43.34081" lon="-0.50223">
        <ele>134.241211</ele>
        <time>2013-08-11T07:47:21Z</time>
      </trkpt>
      <trkpt lat="43.34032" lon="-0.50154">
        <ele>132.799316</ele>
        <time>2013-08-11T07:47:34Z</time>
      </trkpt>
      <trkpt lat="43.34012" lon="-0.50134">
        <ele>132.318604</ele>
        <time>2013-08-11T07:47:39Z</time>
      </trkpt>
      <trkpt lat="43.34" lon="-0.50114">
        <ele>132.799316</ele>
        <time>2013-08-11T07:47:43Z</time>
      </trkpt>
      <trkpt lat="43.3397" lon="-0.50008">
        <ele>133.279907</ele>
        <time>2013-08-11T07:48:00Z</time>
      </trkpt>
      <trkpt lat="43.33957" lon="-0.49964">
        <ele>133.279907</ele>
        <time>2013-08-11T07:48:07Z</time>
      </trkpt>
      <trkpt lat="43.33932" lon="-0.49912">
        <ele>135.683105</ele>
        <time>2013-08-11T07:48:17Z</time>
      </trkpt>
      <trkpt lat="43.33919" lon="-0.49895">
        <ele>136.16394</ele>
        <time>2013-08-11T07:48:21Z</time>
      </trkpt>
      <trkpt lat="43.33907" lon="-0.49885">
        <ele>136.16394</ele>
        <time>2013-08-11T07:48:24Z</time>
      </trkpt>
      <trkpt lat="43.3389" lon="-0.49851">
        <ele>135.683105</ele>
        <time>2013-08-11T07:48:30Z</time>
      </trkpt>
      <trkpt lat="43.33885" lon="-0.49837">
        <ele>135.683105</ele>
        <time>2013-08-11T07:48:32Z</time>
      </trkpt>
      <trkpt lat="43.33863" lon="-0.49792">
        <ele>136.16394</ele>
        <time>2013-08-11T07:48:40Z</time>
      </trkpt>
      <trkpt lat="43.33871" lon="-0.49771">
        <ele>134.721924</ele>
        <time>2013-08-11T07:48:46Z</time>
      </trkpt>
      <trkpt lat="43.33844" lon="-0.49693">
        <ele>134.241211</ele>
        <time>2013-08-11T07:49:00Z</time>
      </trkpt>
      <trkpt lat="43.33833" lon="-0.49665">
        <ele>135.202515</ele>
        <time>2013-08-11T07:49:05Z</time>
      </trkpt>
      <trkpt lat="43.33825" lon="-0.4962">
        <ele>135.683105</ele>
        <time>2013-08-11T07:49:12Z</time>
      </trkpt>
      <trkpt lat="43.33812" lon="-0.49558">
        <ele>135.202515</ele>
        <time>2013-08-11T07:49:23Z</time>
      </trkpt>
      <trkpt lat="43.33788" lon="-0.49504">
        <ele>135.683105</ele>
        <time>2013-08-11T07:49:33Z</time>
      </trkpt>
      <trkpt lat="43.33771" lon="-0.49473">
        <ele>135.202515</ele>
        <time>2013-08-11T07:49:39Z</time>
      </trkpt>
      <trkpt lat="43.33733" lon="-0.4945">
        <ele>135.683105</ele>
        <time>2013-08-11T07:49:48Z</time>
      </trkpt>
      <trkpt lat="43.3372" lon="-0.49429">
        <ele>136.16394</ele>
        <time>2013-08-11T07:49:52Z</time>
      </trkpt>
      <trkpt lat="43.33701" lon="-0.49344">
        <ele>136.16394</ele>
        <time>2013-08-11T07:50:06Z</time>
      </trkpt>
      <trkpt lat="43.3369" lon="-0.49316">
        <ele>136.644653</ele>
        <time>2013-08-11T07:50:11Z</time>
      </trkpt>
      <trkpt lat="43.33676" lon="-0.49298">
        <ele>136.644653</ele>
        <time>2013-08-11T07:50:15Z</time>
      </trkpt>
      <trkpt lat="43.33645" lon="-0.49281">
        <ele>136.16394</ele>
        <time>2013-08-11T07:50:22Z</time>
      </trkpt>
      <trkpt lat="43.33625" lon="-0.49253">
        <ele>136.644653</ele>
        <time>2013-08-11T07:50:28Z</time>
      </trkpt>
      <trkpt lat="43.33619" lon="-0.49209">
        <ele>137.125244</ele>
        <time>2013-08-11T07:50:35Z</time>
      </trkpt>
      <trkpt lat="43.33606" lon="-0.49177">
        <ele>136.644653</ele>
        <time>2013-08-11T07:50:41Z</time>
      </trkpt>
      <trkpt lat="43.33549" lon="-0.49096">
        <ele>137.605835</ele>
        <time>2013-08-11T07:50:58Z</time>
      </trkpt>
      <trkpt lat="43.33506" lon="-0.4901">
        <ele>137.605835</ele>
        <time>2013-08-11T07:51:16Z</time>
      </trkpt>
      <trkpt lat="43.33472" lon="-0.48905">
        <ele>138.086548</ele>
        <time>2013-08-11T07:51:34Z</time>
      </trkpt>
      <trkpt lat="43.33449" lon="-0.4882">
        <ele>138.086548</ele>
        <time>2013-08-11T07:51:49Z</time>
      </trkpt>
      <trkpt lat="43.33446" lon="-0.48811">
        <ele>138.567261</ele>
        <time>2013-08-11T07:51:51Z</time>
      </trkpt>
      <trkpt lat="43.33415" lon="-0.4882">
        <ele>138.567261</ele>
        <time>2013-08-11T07:51:59Z</time>
      </trkpt>
      <trkpt lat="43.33373" lon="-0.48849">
        <ele>138.567261</ele>
        <time>2013-08-11T07:52:10Z</time>
      </trkpt>
      <trkpt lat="43.33352" lon="-0.4884">
        <ele>138.567261</ele>
        <time>2013-08-11T07:52:15Z</time>
      </trkpt>
      <trkpt lat="43.33309" lon="-0.48792">
        <ele>138.567261</ele>
        <time>2013-08-11T07:52:26Z</time>
      </trkpt>
      <trkpt lat="43.33299" lon="-0.48761">
        <ele>138.086548</ele>
        <time>2013-08-11T07:52:31Z</time>
      </trkpt>
      <trkpt lat="43.33284" lon="-0.48732">
        <ele>138.567261</ele>
        <time>2013-08-11T07:52:36Z</time>
      </trkpt>
      <trkpt lat="43.3326" lon="-0.48704">
        <ele>138.567261</ele>
        <time>2013-08-11T07:52:42Z</time>
      </trkpt>
      <trkpt lat="43.33206" lon="-0.48634">
        <ele>138.086548</ele>
        <time>2013-08-11T07:52:57Z</time>
      </trkpt>
      <trkpt lat="43.33185" lon="-0.4858">
        <ele>139.047852</ele>
        <time>2013-08-11T07:53:06Z</time>
      </trkpt>
      <trkpt lat="43.33185" lon="-0.48549">
        <ele>139.047852</ele>
        <time>2013-08-11T07:53:11Z</time>
      </trkpt>
      <trkpt lat="43.33188" lon="-0.48536">
        <ele>139.047852</ele>
        <time>2013-08-11T07:53:13Z</time>
      </trkpt>
      <trkpt lat="43.33193" lon="-0.48471">
        <ele>139.047852</ele>
        <time>2013-08-11T07:53:22Z</time>
      </trkpt>
      <trkpt lat="43.33192" lon="-0.48457">
        <ele>139.047852</ele>
        <time>2013-08-11T07:53:24Z</time>
      </trkpt>
      <trkpt lat="43.33181" lon="-0.48445">
        <ele>139.047852</ele>
        <time>2013-08-11T07:53:27Z</time>
      </trkpt>
      <trkpt lat="43.33174" lon="-0.48438">
        <ele>139.528442</ele>
        <time>2013-08-11T07:53:29Z</time>
      </trkpt>
      <trkpt lat="43.33162" lon="-0.48432">
        <ele>139.528442</ele>
        <time>2013-08-11T07:53:32Z</time>
      </trkpt>
      <trkpt lat="43.33126" lon="-0.48419">
        <ele>140.009155</ele>
        <time>2013-08-11T07:53:40Z</time>
      </trkpt>
      <trkpt lat="43.33115" lon="-0.48411">
        <ele>140.009155</ele>
        <time>2013-08-11T07:53:43Z</time>
      </trkpt>
      <trkpt lat="43.33105" lon="-0.484">
        <ele>139.528442</ele>
        <time>2013-08-11T07:53:46Z</time>
      </trkpt>
      <trkpt lat="43.33097" lon="-0.48378">
        <ele>139.528442</ele>
        <time>2013-08-11T07:53:50Z</time>
      </trkpt>
      <trkpt lat="43.33083" lon="-0.48345">
        <ele>139.528442</ele>
        <time>2013-08-11T07:53:56Z</time>
      </trkpt>
      <trkpt lat="43.33048" lon="-0.48264">
        <ele>140.489868</ele>
        <time>2013-08-11T07:54:12Z</time>
      </trkpt>
      <trkpt lat="43.33049" lon="-0.48231">
        <ele>140.489868</ele>
        <time>2013-08-11T07:54:19Z</time>
      </trkpt>
      <trkpt lat="43.33052" lon="-0.48214">
        <ele>140.970459</ele>
        <time>2013-08-11T07:54:22Z</time>
      </trkpt>
      <trkpt lat="43.33055" lon="-0.48178">
        <ele>141.45105</ele>
        <time>2013-08-11T07:54:28Z</time>
      </trkpt>
      <trkpt lat="43.33038" lon="-0.48094">
        <ele>140.489868</ele>
        <time>2013-08-11T07:54:41Z</time>
      </trkpt>
      <trkpt lat="43.33017" lon="-0.48053">
        <ele>140.009155</ele>
        <time>2013-08-11T07:54:48Z</time>
      </trkpt>
      <trkpt lat="43.33005" lon="-0.48026">
        <ele>140.970459</ele>
        <time>2013-08-11T07:54:52Z</time>
      </trkpt>
      <trkpt lat="43.32984" lon="-0.47944">
        <ele>141.45105</ele>
        <time>2013-08-11T07:55:04Z</time>
      </trkpt>
      <trkpt lat="43.32941" lon="-0.47855">
        <ele>141.931763</ele>
        <time>2013-08-11T07:55:19Z</time>
      </trkpt>
      <trkpt lat="43.32903" lon="-0.47752">
        <ele>142.412476</ele>
        <time>2013-08-11T07:55:35Z</time>
      </trkpt>
      <trkpt lat="43.32853" lon="-0.47631">
        <ele>141.931763</ele>
        <time>2013-08-11T07:55:54Z</time>
      </trkpt>
      <trkpt lat="43.3283" lon="-0.47567">
        <ele>141.931763</ele>
        <time>2013-08-11T07:56:04Z</time>
      </trkpt>
      <trkpt lat="43.32839" lon="-0.47529">
        <ele>142.893066</ele>
        <time>2013-08-11T07:56:12Z</time>
      </trkpt>
      <trkpt lat="43.32842" lon="-0.47527">
        <ele>142.412476</ele>
        <time>2013-08-11T07:56:13Z</time>
      </trkpt>
      <trkpt lat="43.32864" lon="-0.47511">
        <ele>142.893066</ele>
        <time>2013-08-11T07:56:19Z</time>
      </trkpt>
      <trkpt lat="43.32862" lon="-0.47493">
        <ele>142.412476</ele>
        <time>2013-08-11T07:56:23Z</time>
      </trkpt>
      <trkpt lat="43.32853" lon="-0.47478">
        <ele>142.412476</ele>
        <time>2013-08-11T07:56:26Z</time>
      </trkpt>
      <trkpt lat="43.32841" lon="-0.47447">
        <ele>141.931763</ele>
        <time>2013-08-11T07:56:31Z</time>
      </trkpt>
      <trkpt lat="43.32818" lon="-0.47303">
        <ele>142.412476</ele>
        <time>2013-08-11T07:56:52Z</time>
      </trkpt>
      <trkpt lat="43.32811" lon="-0.47196">
        <ele>143.85437</ele>
        <time>2013-08-11T07:57:07Z</time>
      </trkpt>
      <trkpt lat="43.32817" lon="-0.47143">
        <ele>143.85437</ele>
        <time>2013-08-11T07:57:14Z</time>
      </trkpt>
      <trkpt lat="43.32808" lon="-0.47053">
        <ele>144.815796</ele>
        <time>2013-08-11T07:57:28Z</time>
      </trkpt>
      <trkpt lat="43.32839" lon="-0.46959">
        <ele>144.335205</ele>
        <time>2013-08-11T07:57:43Z</time>
      </trkpt>
      <trkpt lat="43.3288" lon="-0.46883">
        <ele>144.815796</ele>
        <time>2013-08-11T07:57:56Z</time>
      </trkpt>
      <trkpt lat="43.32945" lon="-0.46821">
        <ele>145.296387</ele>
        <time>2013-08-11T07:58:12Z</time>
      </trkpt>
      <trkpt lat="43.33" lon="-0.46749">
        <ele>145.296387</ele>
        <time>2013-08-11T07:58:27Z</time>
      </trkpt>
      <trkpt lat="43.33019" lon="-0.4673">
        <ele>145.296387</ele>
        <time>2013-08-11T07:58:32Z</time>
      </trkpt>
      <trkpt lat="43.33041" lon="-0.46714">
        <ele>144.815796</ele>
        <time>2013-08-11T07:58:37Z</time>
      </trkpt>
      <trkpt lat="43.33061" lon="-0.46683">
        <ele>144.335205</ele>
        <time>2013-08-11T07:58:43Z</time>
      </trkpt>
      <trkpt lat="43.33065" lon="-0.4667">
        <ele>144.335205</ele>
        <time>2013-08-11T07:58:45Z</time>
      </trkpt>
      <trkpt lat="43.33072" lon="-0.46652">
        <ele>144.335205</ele>
        <time>2013-08-11T07:58:48Z</time>
      </trkpt>
      <trkpt lat="43.33086" lon="-0.46634">
        <ele>144.815796</ele>
        <time>2013-08-11T07:58:52Z</time>
      </trkpt>
      <trkpt lat="43.33102" lon="-0.46619">
        <ele>145.296387</ele>
        <time>2013-08-11T07:58:56Z</time>
      </trkpt>
      <trkpt lat="43.33113" lon="-0.46581">
        <ele>144.335205</ele>
        <time>2013-08-11T07:59:03Z</time>
      </trkpt>
      <trkpt lat="43.33095" lon="-0.46536">
        <ele>143.373657</ele>
        <time>2013-08-11T07:59:14Z</time>
      </trkpt>
      <trkpt lat="43.3307" lon="-0.46492">
        <ele>144.815796</ele>
        <time>2013-08-11T07:59:27Z</time>
      </trkpt>
      <trkpt lat="43.33025" lon="-0.46442">
        <ele>145.7771</ele>
        <time>2013-08-11T07:59:42Z</time>
      </trkpt>
      <trkpt lat="43.32999" lon="-0.46434">
        <ele>145.296387</ele>
        <time>2013-08-11T07:59:48Z</time>
      </trkpt>
      <trkpt lat="43.3298" lon="-0.46418">
        <ele>145.7771</ele>
        <time>2013-08-11T07:59:53Z</time>
      </trkpt>
      <trkpt lat="43.32928" lon="-0.46368">
        <ele>146.257813</ele>
        <time>2013-08-11T08:00:06Z</time>
      </trkpt>
      <trkpt lat="43.32844" lon="-0.46258">
        <ele>146.738403</ele>
        <time>2013-08-11T08:00:29Z</time>
      </trkpt>
      <trkpt lat="43.32779" lon="-0.46169">
        <ele>146.738403</ele>
        <time>2013-08-11T08:00:47Z</time>
      </trkpt>
      <trkpt lat="43.32735" lon="-0.46087">
        <ele>146.257813</ele>
        <time>2013-08-11T08:01:01Z</time>
      </trkpt>
      <trkpt lat="43.32681" lon="-0.46005">
        <ele>147.218994</ele>
        <time>2013-08-11T08:01:18Z</time>
      </trkpt>
      <trkpt lat="43.32622" lon="-0.45944">
        <ele>147.699707</ele>
        <time>2013-08-11T08:01:34Z</time>
      </trkpt>
      <trkpt lat="43.32537" lon="-0.45856">
        <ele>148.661011</ele>
        <time>2013-08-11T08:01:55Z</time>
      </trkpt>
      <trkpt lat="43.3248" lon="-0.45798">
        <ele>148.661011</ele>
        <time>2013-08-11T08:02:09Z</time>
      </trkpt>
      <trkpt lat="43.32422" lon="-0.45732">
        <ele>148.661011</ele>
        <time>2013-08-11T08:02:24Z</time>
      </trkpt>
      <trkpt lat="43.3233" lon="-0.45674">
        <ele>150.103027</ele>
        <time>2013-08-11T08:02:44Z</time>
      </trkpt>
      <trkpt lat="43.32236" lon="-0.45604">
        <ele>151.064209</ele>
        <time>2013-08-11T08:03:05Z</time>
      </trkpt>
      <trkpt lat="43.32137" lon="-0.45543">
        <ele>150.103027</ele>
        <time>2013-08-11T08:03:25Z</time>
      </trkpt>
      <trkpt lat="43.3206" lon="-0.45508">
        <ele>150.583618</ele>
        <time>2013-08-11T08:03:41Z</time>
      </trkpt>
      <trkpt lat="43.31998" lon="-0.4547">
        <ele>151.064209</ele>
        <time>2013-08-11T08:03:55Z</time>
      </trkpt>
      <trkpt lat="43.31952" lon="-0.4545">
        <ele>150.583618</ele>
        <time>2013-08-11T08:04:04Z</time>
      </trkpt>
      <trkpt lat="43.31905" lon="-0.45415">
        <ele>151.544922</ele>
        <time>2013-08-11T08:04:15Z</time>
      </trkpt>
      <trkpt lat="43.31867" lon="-0.45359">
        <ele>150.103027</ele>
        <time>2013-08-11T08:04:26Z</time>
      </trkpt>
      <trkpt lat="43.31858" lon="-0.45346">
        <ele>150.583618</ele>
        <time>2013-08-11T08:04:29Z</time>
      </trkpt>
      <trkpt lat="43.31841" lon="-0.45339">
        <ele>150.583618</ele>
        <time>2013-08-11T08:04:33Z</time>
      </trkpt>
      <trkpt lat="43.31809" lon="-0.45294">
        <ele>150.583618</ele>
        <time>2013-08-11T08:04:42Z</time>
      </trkpt>
      <trkpt lat="43.31804" lon="-0.45274">
        <ele>150.583618</ele>
        <time>2013-08-11T08:04:45Z</time>
      </trkpt>
      <trkpt lat="43.31802" lon="-0.45262">
        <ele>151.064209</ele>
        <time>2013-08-11T08:04:47Z</time>
      </trkpt>
      <trkpt lat="43.31802" lon="-0.45249">
        <ele>151.064209</ele>
        <time>2013-08-11T08:04:49Z</time>
      </trkpt>
      <trkpt lat="43.31777" lon="-0.45216">
        <ele>151.544922</ele>
        <time>2013-08-11T08:04:56Z</time>
      </trkpt>
      <trkpt lat="43.31668" lon="-0.45179">
        <ele>152.025757</ele>
        <time>2013-08-11T08:05:17Z</time>
      </trkpt>
      <trkpt lat="43.31597" lon="-0.45195">
        <ele>152.506348</ele>
        <time>2013-08-11T08:05:31Z</time>
      </trkpt>
      <trkpt lat="43.31566" lon="-0.45198">
        <ele>152.506348</ele>
        <time>2013-08-11T08:05:37Z</time>
      </trkpt>
      <trkpt lat="43.31553" lon="-0.45196">
        <ele>152.506348</ele>
        <time>2013-08-11T08:05:40Z</time>
      </trkpt>
      <trkpt lat="43.31541" lon="-0.45187">
        <ele>152.986938</ele>
        <time>2013-08-11T08:05:43Z</time>
      </trkpt>
      <trkpt lat="43.31499" lon="-0.45162">
        <ele>152.506348</ele>
        <time>2013-08-11T08:05:52Z</time>
      </trkpt>
      <trkpt lat="43.31479" lon="-0.45161">
        <ele>152.986938</ele>
        <time>2013-08-11T08:05:56Z</time>
      </trkpt>
      <trkpt lat="43.31452" lon="-0.45149">
        <ele>152.986938</ele>
        <time>2013-08-11T08:06:02Z</time>
      </trkpt>
      <trkpt lat="43.31432" lon="-0.45135">
        <ele>152.506348</ele>
        <time>2013-08-11T08:06:07Z</time>
      </trkpt>
      <trkpt lat="43.31357" lon="-0.45111">
        <ele>152.506348</ele>
        <time>2013-08-11T08:06:21Z</time>
      </trkpt>
      <trkpt lat="43.31333" lon="-0.45098">
        <ele>151.544922</ele>
        <time>2013-08-11T08:06:26Z</time>
      </trkpt>
      <trkpt lat="43.31257" lon="-0.45049">
        <ele>152.025757</ele>
        <time>2013-08-11T08:06:42Z</time>
      </trkpt>
      <trkpt lat="43.31193" lon="-0.45009">
        <ele>152.025757</ele>
        <time>2013-08-11T08:06:56Z</time>
      </trkpt>
      <trkpt lat="43.31139" lon="-0.44963">
        <ele>152.506348</ele>
        <time>2013-08-11T08:07:11Z</time>
      </trkpt>
      <trkpt lat="43.31072" lon="-0.44913">
        <ele>152.986938</ele>
        <time>2013-08-11T08:07:26Z</time>
      </trkpt>
      <trkpt lat="43.30997" lon="-0.44852">
        <ele>152.986938</ele>
        <time>2013-08-11T08:07:43Z</time>
      </trkpt>
      <trkpt lat="43.30949" lon="-0.44772">
        <ele>152.506348</ele>
        <time>2013-08-11T08:07:58Z</time>
      </trkpt>
      <trkpt lat="43.30934" lon="-0.44751">
        <ele>152.506348</ele>
        <time>2013-08-11T08:08:03Z</time>
      </trkpt>
      <trkpt lat="43.30912" lon="-0.4474">
        <ele>152.506348</ele>
        <time>2013-08-11T08:08:09Z</time>
      </trkpt>
      <trkpt lat="43.30877" lon="-0.44692">
        <ele>152.506348</ele>
        <time>2013-08-11T08:08:22Z</time>
      </trkpt>
      <trkpt lat="43.30844" lon="-0.44645">
        <ele>153.467651</ele>
        <time>2013-08-11T08:08:36Z</time>
      </trkpt>
      <trkpt lat="43.30833" lon="-0.44634">
        <ele>155.390259</ele>
        <time>2013-08-11T08:08:41Z</time>
      </trkpt>
      <trkpt lat="43.30822" lon="-0.44601">
        <ele>154.428955</ele>
        <time>2013-08-11T08:08:51Z</time>
      </trkpt>
      <trkpt lat="43.30817" lon="-0.44583">
        <ele>152.986938</ele>
        <time>2013-08-11T08:08:54Z</time>
      </trkpt>
      <trkpt lat="43.30813" lon="-0.44576">
        <ele>153.948364</ele>
        <time>2013-08-11T08:08:55Z</time>
      </trkpt>
      <trkpt lat="43.30786" lon="-0.44506">
        <ele>152.986938</ele>
        <time>2013-08-11T08:09:08Z</time>
      </trkpt>
      <trkpt lat="43.30767" lon="-0.44409">
        <ele>152.986938</ele>
        <time>2013-08-11T08:09:25Z</time>
      </trkpt>
      <trkpt lat="43.30762" lon="-0.44377">
        <ele>152.986938</ele>
        <time>2013-08-11T08:09:31Z</time>
      </trkpt>
      <trkpt lat="43.30754" lon="-0.44347">
        <ele>153.467651</ele>
        <time>2013-08-11T08:09:36Z</time>
      </trkpt>
      <trkpt lat="43.30728" lon="-0.44257">
        <ele>153.948364</ele>
        <time>2013-08-11T08:09:52Z</time>
      </trkpt>
      <trkpt lat="43.30724" lon="-0.44246">
        <ele>153.467651</ele>
        <time>2013-08-11T08:09:54Z</time>
      </trkpt>
      <trkpt lat="43.30674" lon="-0.44149">
        <ele>154.428955</ele>
        <time>2013-08-11T08:10:13Z</time>
      </trkpt>
      <trkpt lat="43.30619" lon="-0.44058">
        <ele>154.909546</ele>
        <time>2013-08-11T08:10:31Z</time>
      </trkpt>
      <trkpt lat="43.30576" lon="-0.43992">
        <ele>155.870972</ele>
        <time>2013-08-11T08:10:46Z</time>
      </trkpt>
      <trkpt lat="43.30543" lon="-0.43931">
        <ele>157.312866</ele>
        <time>2013-08-11T08:11:00Z</time>
      </trkpt>
      <trkpt lat="43.30505" lon="-0.43868">
        <ele>157.793579</ele>
        <time>2013-08-11T08:11:14Z</time>
      </trkpt>
      <trkpt lat="43.30489" lon="-0.43838">
        <ele>157.312866</ele>
        <time>2013-08-11T08:11:20Z</time>
      </trkpt>
      <trkpt lat="43.30484" lon="-0.43815">
        <ele>158.27417</ele>
        <time>2013-08-11T08:11:24Z</time>
      </trkpt>
      <trkpt lat="43.30482" lon="-0.43796">
        <ele>158.27417</ele>
        <time>2013-08-11T08:11:27Z</time>
      </trkpt>
      <trkpt lat="43.30471" lon="-0.4376">
        <ele>159.235474</ele>
        <time>2013-08-11T08:11:34Z</time>
      </trkpt>
      <trkpt lat="43.30456" lon="-0.43735">
        <ele>158.754761</ele>
        <time>2013-08-11T08:11:40Z</time>
      </trkpt>
      <trkpt lat="43.3044" lon="-0.43681">
        <ele>158.754761</ele>
        <time>2013-08-11T08:11:51Z</time>
      </trkpt>
      <trkpt lat="43.30493" lon="-0.43638">
        <ele>160.67749</ele>
        <time>2013-08-11T08:12:07Z</time>
      </trkpt>
      <trkpt lat="43.30554" lon="-0.43596">
        <ele>159.716187</ele>
        <time>2013-08-11T08:12:23Z</time>
      </trkpt>
      <trkpt lat="43.30584" lon="-0.43591">
        <ele>158.754761</ele>
        <time>2013-08-11T08:12:29Z</time>
      </trkpt>
      <trkpt lat="43.30601" lon="-0.43598">
        <ele>159.235474</ele>
        <time>2013-08-11T08:12:33Z</time>
      </trkpt>
      <trkpt lat="43.30632" lon="-0.43638">
        <ele>158.27417</ele>
        <time>2013-08-11T08:12:46Z</time>
      </trkpt>
      <trkpt lat="43.30662" lon="-0.43681">
        <ele>157.793579</ele>
        <time>2013-08-11T08:12:58Z</time>
      </trkpt>
      <trkpt lat="43.30695" lon="-0.43729">
        <ele>157.312866</ele>
        <time>2013-08-11T08:13:12Z</time>
      </trkpt>
      <trkpt lat="43.30723" lon="-0.43779">
        <ele>156.832153</ele>
        <time>2013-08-11T08:13:25Z</time>
      </trkpt>
      <trkpt lat="43.30747" lon="-0.43825">
        <ele>156.351563</ele>
        <time>2013-08-11T08:13:39Z</time>
      </trkpt>
      <trkpt lat="43.30743" lon="-0.43864">
        <ele>155.870972</ele>
        <time>2013-08-11T08:13:49Z</time>
      </trkpt>
      <trkpt lat="43.30736" lon="-0.43883">
        <ele>155.390259</ele>
        <time>2013-08-11T08:13:56Z</time>
      </trkpt>
      <trkpt lat="43.30737" lon="-0.43887">
        <ele>156.832153</ele>
        <time>2013-08-11T08:14:11Z</time>
      </trkpt>
      <trkpt lat="43.30738" lon="-0.43887">
        <ele>156.351563</ele>
        <time>2013-08-11T08:14:25Z</time>
      </trkpt>
      <trkpt lat="43.30739" lon="-0.43887">
        <ele>156.351563</ele>
        <time>2013-08-11T08:14:45Z</time>
      </trkpt>
      <trkpt lat="43.30738" lon="-0.43886">
        <ele>155.870972</ele>
        <time>2013-08-11T08:15:03Z</time>
      </trkpt>
      <trkpt lat="43.30738" lon="-0.43885">
        <ele>157.312866</ele>
        <time>2013-08-11T08:15:26Z</time>
      </trkpt>
      <trkpt lat="43.30753" lon="-0.43892">
        <ele>156.832153</ele>
        <time>2013-08-11T08:15:34Z</time>
      </trkpt>
      <trkpt lat="43.30804" lon="-0.43921">
        <ele>154.909546</ele>
        <time>2013-08-11T08:15:49Z</time>
      </trkpt>
      <trkpt lat="43.30839" lon="-0.43899">
        <ele>153.948364</ele>
        <time>2013-08-11T08:16:01Z</time>
      </trkpt>
      <trkpt lat="43.30843" lon="-0.43895">
        <ele>153.948364</ele>
        <time>2013-08-11T08:16:10Z</time>
      </trkpt>
      <trkpt lat="43.30842" lon="-0.43895">
        <ele>154.428955</ele>
        <time>2013-08-11T08:16:22Z</time>
      </trkpt>
      <trkpt lat="43.30841" lon="-0.43894">
        <ele>153.948364</ele>
        <time>2013-08-11T08:16:50Z</time>
      </trkpt>
      <trkpt lat="43.30839" lon="-0.43895">
        <ele>153.467651</ele>
        <time>2013-08-11T08:17:25Z</time>
      </trkpt>
      <trkpt lat="43.30841" lon="-0.43896">
        <ele>153.467651</ele>
        <time>2013-08-11T08:17:55Z</time>
      </trkpt>
      <trkpt lat="43.30841" lon="-0.43895">
        <ele>153.467651</ele>
        <time>2013-08-11T08:18:23Z</time>
      </trkpt>
      <trkpt lat="43.30841" lon="-0.43895">
        <ele>153.948364</ele>
        <time>2013-08-11T08:18:34Z</time>
      </trkpt>
      <trkpt lat="43.30867" lon="-0.4388">
        <ele>154.428955</ele>
        <time>2013-08-11T08:18:47Z</time>
      </trkpt>
      <trkpt lat="43.30923" lon="-0.43841">
        <ele>154.428955</ele>
        <time>2013-08-11T08:19:05Z</time>
      </trkpt>
      <trkpt lat="43.30988" lon="-0.43786">
        <ele>154.909546</ele>
        <time>2013-08-11T08:19:25Z</time>
      </trkpt>
      <trkpt lat="43.30989" lon="-0.43751">
        <ele>154.909546</ele>
        <time>2013-08-11T08:19:32Z</time>
      </trkpt>
      <trkpt lat="43.30976" lon="-0.43728">
        <ele>154.428955</ele>
        <time>2013-08-11T08:19:37Z</time>
      </trkpt>
      <trkpt lat="43.30936" lon="-0.43706">
        <ele>154.428955</ele>
        <time>2013-08-11T08:19:48Z</time>
      </trkpt>
      <trkpt lat="43.30909" lon="-0.4369">
        <ele>155.390259</ele>
        <time>2013-08-11T08:19:55Z</time>
      </trkpt>
      <trkpt lat="43.30902" lon="-0.43665">
        <ele>154.909546</ele>
        <time>2013-08-11T08:20:01Z</time>
      </trkpt>
      <trkpt lat="43.30941" lon="-0.43602">
        <ele>154.909546</ele>
        <time>2013-08-11T08:20:16Z</time>
      </trkpt>
      <trkpt lat="43.30981" lon="-0.43527">
        <ele>154.909546</ele>
        <time>2013-08-11T08:20:30Z</time>
      </trkpt>
      <trkpt lat="43.31038" lon="-0.43472">
        <ele>154.909546</ele>
        <time>2013-08-11T08:20:45Z</time>
      </trkpt>
      <trkpt lat="43.31046" lon="-0.43434">
        <ele>155.870972</ele>
        <time>2013-08-11T08:20:52Z</time>
      </trkpt>
      <trkpt lat="43.31029" lon="-0.43369">
        <ele>155.870972</ele>
        <time>2013-08-11T08:21:04Z</time>
      </trkpt>
      <trkpt lat="43.30987" lon="-0.43305">
        <ele>156.832153</ele>
        <time>2013-08-11T08:21:20Z</time>
      </trkpt>
      <trkpt lat="43.30983" lon="-0.43302">
        <ele>156.351563</ele>
        <time>2013-08-11T08:21:21Z</time>
      </trkpt>
      <trkpt lat="43.30927" lon="-0.43267">
        <ele>158.27417</ele>
        <time>2013-08-11T08:21:37Z</time>
      </trkpt>
      <trkpt lat="43.30877" lon="-0.4327">
        <ele>158.27417</ele>
        <time>2013-08-11T08:21:50Z</time>
      </trkpt>
      <trkpt lat="43.308" lon="-0.43264">
        <ele>157.312866</ele>
        <time>2013-08-11T08:22:06Z</time>
      </trkpt>
      <trkpt lat="43.30744" lon="-0.43238">
        <ele>159.716187</ele>
        <time>2013-08-11T08:22:22Z</time>
      </trkpt>
      <trkpt lat="43.30728" lon="-0.43235">
        <ele>159.716187</ele>
        <time>2013-08-11T08:22:27Z</time>
      </trkpt>
      <trkpt lat="43.3071" lon="-0.43248">
        <ele>160.196899</ele>
        <time>2013-08-11T08:22:32Z</time>
      </trkpt>
      <trkpt lat="43.30686" lon="-0.43306">
        <ele>159.716187</ele>
        <time>2013-08-11T08:22:45Z</time>
      </trkpt>
      <trkpt lat="43.30673" lon="-0.43337">
        <ele>159.235474</ele>
        <time>2013-08-11T08:22:51Z</time>
      </trkpt>
      <trkpt lat="43.30631" lon="-0.4339">
        <ele>159.716187</ele>
        <time>2013-08-11T08:23:06Z</time>
      </trkpt>
      <trkpt lat="43.30587" lon="-0.43457">
        <ele>159.716187</ele>
        <time>2013-08-11T08:23:24Z</time>
      </trkpt>
      <trkpt lat="43.30582" lon="-0.43463">
        <ele>159.716187</ele>
        <time>2013-08-11T08:23:26Z</time>
      </trkpt>
      <trkpt lat="43.30596" lon="-0.43471">
        <ele>159.716187</ele>
        <time>2013-08-11T08:23:33Z</time>
      </trkpt>
      <trkpt lat="43.30612" lon="-0.43485">
        <ele>159.235474</ele>
        <time>2013-08-11T08:23:38Z</time>
      </trkpt>
      <trkpt lat="43.30599" lon="-0.43529">
        <ele>158.27417</ele>
        <time>2013-08-11T08:23:47Z</time>
      </trkpt>
      <trkpt lat="43.30598" lon="-0.43535">
        <ele>159.235474</ele>
        <time>2013-08-11T08:23:48Z</time>
      </trkpt>
      <trkpt lat="43.30597" lon="-0.43547">
        <ele>158.27417</ele>
        <time>2013-08-11T08:23:50Z</time>
      </trkpt>
      <trkpt lat="43.30579" lon="-0.43578">
        <ele>158.27417</ele>
        <time>2013-08-11T08:23:56Z</time>
      </trkpt>
      <trkpt lat="43.30531" lon="-0.43613">
        <ele>160.67749</ele>
        <time>2013-08-11T08:24:12Z</time>
      </trkpt>
      <trkpt lat="43.30478" lon="-0.4365">
        <ele>161.158203</ele>
        <time>2013-08-11T08:24:32Z</time>
      </trkpt>
      <trkpt lat="43.30442" lon="-0.43681">
        <ele>159.235474</ele>
        <time>2013-08-11T08:24:45Z</time>
      </trkpt>
      <trkpt lat="43.30442" lon="-0.43707">
        <ele>159.235474</ele>
        <time>2013-08-11T08:24:50Z</time>
      </trkpt>
      <trkpt lat="43.30473" lon="-0.43765">
        <ele>159.235474</ele>
        <time>2013-08-11T08:25:03Z</time>
      </trkpt>
      <trkpt lat="43.30487" lon="-0.43824">
        <ele>158.754761</ele>
        <time>2013-08-11T08:25:14Z</time>
      </trkpt>
      <trkpt lat="43.30523" lon="-0.43899">
        <ele>158.754761</ele>
        <time>2013-08-11T08:25:27Z</time>
      </trkpt>
      <trkpt lat="43.30547" lon="-0.43933">
        <ele>157.312866</ele>
        <time>2013-08-11T08:25:34Z</time>
      </trkpt>
      <trkpt lat="43.30594" lon="-0.44021">
        <ele>155.870972</ele>
        <time>2013-08-11T08:25:50Z</time>
      </trkpt>
      <trkpt lat="43.30636" lon="-0.44086">
        <ele>155.870972</ele>
        <time>2013-08-11T08:26:04Z</time>
      </trkpt>
      <trkpt lat="43.30661" lon="-0.44123">
        <ele>155.390259</ele>
        <time>2013-08-11T08:26:11Z</time>
      </trkpt>
      <trkpt lat="43.30689" lon="-0.44174">
        <ele>155.390259</ele>
        <time>2013-08-11T08:26:21Z</time>
      </trkpt>
      <trkpt lat="43.3072" lon="-0.44231">
        <ele>155.390259</ele>
        <time>2013-08-11T08:26:32Z</time>
      </trkpt>
      <trkpt lat="43.30756" lon="-0.44342">
        <ele>154.909546</ele>
        <time>2013-08-11T08:26:52Z</time>
      </trkpt>
      <trkpt lat="43.30774" lon="-0.4443">
        <ele>154.909546</ele>
        <time>2013-08-11T08:27:07Z</time>
      </trkpt>
      <trkpt lat="43.30776" lon="-0.44454">
        <ele>154.428955</ele>
        <time>2013-08-11T08:27:11Z</time>
      </trkpt>
      <trkpt lat="43.30797" lon="-0.44545">
        <ele>154.428955</ele>
        <time>2013-08-11T08:27:27Z</time>
      </trkpt>
      <trkpt lat="43.30815" lon="-0.4458">
        <ele>154.909546</ele>
        <time>2013-08-11T08:27:34Z</time>
      </trkpt>
      <trkpt lat="43.30831" lon="-0.44628">
        <ele>155.870972</ele>
        <time>2013-08-11T08:27:45Z</time>
      </trkpt>
      <trkpt lat="43.3084" lon="-0.44642">
        <ele>155.390259</ele>
        <time>2013-08-11T08:27:49Z</time>
      </trkpt>
      <trkpt lat="43.3087" lon="-0.44682">
        <ele>153.948364</ele>
        <time>2013-08-11T08:27:57Z</time>
      </trkpt>
      <trkpt lat="43.30873" lon="-0.44688">
        <ele>154.909546</ele>
        <time>2013-08-11T08:27:58Z</time>
      </trkpt>
      <trkpt lat="43.30898" lon="-0.44729">
        <ele>154.909546</ele>
        <time>2013-08-11T08:28:06Z</time>
      </trkpt>
      <trkpt lat="43.30923" lon="-0.44748">
        <ele>154.909546</ele>
        <time>2013-08-11T08:28:12Z</time>
      </trkpt>
      <trkpt lat="43.30946" lon="-0.44763">
        <ele>154.428955</ele>
        <time>2013-08-11T08:28:17Z</time>
      </trkpt>
      <trkpt lat="43.30993" lon="-0.44845">
        <ele>153.948364</ele>
        <time>2013-08-11T08:28:32Z</time>
      </trkpt>
      <trkpt lat="43.31034" lon="-0.44882">
        <ele>153.948364</ele>
        <time>2013-08-11T08:28:43Z</time>
      </trkpt>
      <trkpt lat="43.31096" lon="-0.44927">
        <ele>153.467651</ele>
        <time>2013-08-11T08:28:56Z</time>
      </trkpt>
      <trkpt lat="43.31165" lon="-0.44986">
        <ele>153.467651</ele>
        <time>2013-08-11T08:29:11Z</time>
      </trkpt>
      <trkpt lat="43.3122" lon="-0.45026">
        <ele>152.986938</ele>
        <time>2013-08-11T08:29:25Z</time>
      </trkpt>
      <trkpt lat="43.31248" lon="-0.4504">
        <ele>153.467651</ele>
        <time>2013-08-11T08:29:32Z</time>
      </trkpt>
      <trkpt lat="43.313" lon="-0.45074">
        <ele>153.467651</ele>
        <time>2013-08-11T08:29:44Z</time>
      </trkpt>
      <trkpt lat="43.31366" lon="-0.45114">
        <ele>152.986938</ele>
        <time>2013-08-11T08:29:56Z</time>
      </trkpt>
      <trkpt lat="43.31424" lon="-0.45126">
        <ele>153.467651</ele>
        <time>2013-08-11T08:30:07Z</time>
      </trkpt>
      <trkpt lat="43.31434" lon="-0.45131">
        <ele>153.948364</ele>
        <time>2013-08-11T08:30:09Z</time>
      </trkpt>
      <trkpt lat="43.3148" lon="-0.4516">
        <ele>154.428955</ele>
        <time>2013-08-11T08:30:20Z</time>
      </trkpt>
      <trkpt lat="43.31491" lon="-0.45161">
        <ele>154.428955</ele>
        <time>2013-08-11T08:30:22Z</time>
      </trkpt>
      <trkpt lat="43.31538" lon="-0.4518">
        <ele>154.428955</ele>
        <time>2013-08-11T08:30:32Z</time>
      </trkpt>
      <trkpt lat="43.31564" lon="-0.45194">
        <ele>154.428955</ele>
        <time>2013-08-11T08:30:39Z</time>
      </trkpt>
      <trkpt lat="43.31613" lon="-0.45195">
        <ele>154.428955</ele>
        <time>2013-08-11T08:30:49Z</time>
      </trkpt>
      <trkpt lat="43.31697" lon="-0.45184">
        <ele>153.467651</ele>
        <time>2013-08-11T08:31:05Z</time>
      </trkpt>
      <trkpt lat="43.31707" lon="-0.45185">
        <ele>153.467651</ele>
        <time>2013-08-11T08:31:07Z</time>
      </trkpt>
      <trkpt lat="43.31795" lon="-0.45227">
        <ele>152.986938</ele>
        <time>2013-08-11T08:31:24Z</time>
      </trkpt>
      <trkpt lat="43.31803" lon="-0.45236">
        <ele>153.467651</ele>
        <time>2013-08-11T08:31:26Z</time>
      </trkpt>
      <trkpt lat="43.3181" lon="-0.45258">
        <ele>152.986938</ele>
        <time>2013-08-11T08:31:30Z</time>
      </trkpt>
      <trkpt lat="43.31811" lon="-0.45271">
        <ele>153.467651</ele>
        <time>2013-08-11T08:31:32Z</time>
      </trkpt>
      <trkpt lat="43.3182" lon="-0.45311">
        <ele>152.986938</ele>
        <time>2013-08-11T08:31:38Z</time>
      </trkpt>
      <trkpt lat="43.31858" lon="-0.45343">
        <ele>152.506348</ele>
        <time>2013-08-11T08:31:47Z</time>
      </trkpt>
      <trkpt lat="43.31904" lon="-0.4541">
        <ele>152.986938</ele>
        <time>2013-08-11T08:32:00Z</time>
      </trkpt>
      <trkpt lat="43.31971" lon="-0.45461">
        <ele>152.506348</ele>
        <time>2013-08-11T08:32:14Z</time>
      </trkpt>
      <trkpt lat="43.32031" lon="-0.45493">
        <ele>152.986938</ele>
        <time>2013-08-11T08:32:27Z</time>
      </trkpt>
    </trkseg>
  </trk>
  <trk>
    <name><![CDATA[ACTIVE LOG 002]]></name>
    <trkseg>
      <trkpt lat="43.31811" lon="-0.45277">
        <ele>116.9375</ele>
        <time>2013-08-11T09:21:48Z</time>
      </trkpt>
      <trkpt lat="43.31811" lon="-0.45277">
        <ele>113.572998</ele>
        <time>2013-08-11T09:21:49Z</time>
      </trkpt>
    </trkseg>
  </trk>
  <trk>
    <name><![CDATA[ACTIVE LOG 003]]></name>
    <trkseg>
      <trkpt lat="43.31811" lon="-0.45277">
        <ele>201.052856</ele>
        <time>2013-08-11T09:52:42Z</time>
      </trkpt>
      <trkpt lat="43.31811" lon="-0.45277">
        <ele>199.130127</ele>
        <time>2013-08-11T09:52:43Z</time>
      </trkpt>
      <trkpt lat="43.31811" lon="-0.45277">
        <ele>199.61084</ele>
        <time>2013-08-11T09:52:53Z</time>
      </trkpt>
    </trkseg>
  </trk>
</gpx>